sensor_id;sensor_type;location;lat;lon;timestamp;P1;durP1;ratioP1;P2;durP2;ratioP2
60847;SDS011;46681;47.696;9.140;2023-12-22T00:02:10;1.10;;;0.90;;
60847;SDS011;46681;47.696;9.140;2023-12-22T00:04:36;0.93;;;0.93;;
60847;SDS011;46681;47.696;9.140;2023-12-22T00:07:01;0.93;;;0.90;;
60847;SDS011;46681;47.696;9.140;2023-12-22T00:09:27;1.30;;;0.97;;
60847;SDS011;46681;47.696;9.140;2023-12-22T00:11:52;1.43;;;1.33;;
60847;SDS011;46681;47.696;9.140;2023-12-22T00:14:18;1.30;;;1.20;;
60847;SDS011;46681;47.696;9.140;2023-12-22T00:16:48;2.50;;;1.73;;
60847;SDS011;46681;47.696;9.140;2023-12-22T00:19:13;3.03;;;1.03;;
60847;SDS011;46681;47.696;9.140;2023-12-22T00:21:39;1.60;;;1.10;;
60847;SDS011;46681;47.696;9.140;2023-12-22T00:24:04;3.10;;;1.63;;
60847;SDS011;46681;47.696;9.140;2023-12-22T00:26:30;1.10;;;1.00;;
60847;SDS011;46681;47.696;9.140;2023-12-22T00:28:55;0.97;;;0.90;;
60847;SDS011;46681;47.696;9.140;2023-12-22T00:31:21;2.77;;;1.30;;
60847;SDS011;46681;47.696;9.140;2023-12-22T00:33:46;1.50;;;1.10;;
60847;SDS011;46681;47.696;9.140;2023-12-22T00:36:12;1.00;;;1.00;;
60847;SDS011;46681;47.696;9.140;2023-12-22T00:38:37;0.93;;;0.90;;
60847;SDS011;46681;47.696;9.140;2023-12-22T00:41:03;1.23;;;0.93;;
60847;SDS011;46681;47.696;9.140;2023-12-22T00:43:28;1.23;;;1.10;;
60847;SDS011;46681;47.696;9.140;2023-12-22T00:45:54;2.67;;;1.17;;
60847;SDS011;46681;47.696;9.140;2023-12-22T00:48:20;2.13;;;1.30;;
60847;SDS011;46681;47.696;9.140;2023-12-22T00:50:45;1.00;;;0.90;;
60847;SDS011;46681;47.696;9.140;2023-12-22T00:53:11;2.87;;;1.10;;
60847;SDS011;46681;47.696;9.140;2023-12-22T00:55:36;1.57;;;1.00;;
60847;SDS011;46681;47.696;9.140;2023-12-22T00:58:02;1.67;;;0.90;;
60847;SDS011;46681;47.696;9.140;2023-12-22T01:00:27;0.93;;;0.93;;
60847;SDS011;46681;47.696;9.140;2023-12-22T01:02:53;1.00;;;1.00;;
60847;SDS011;46681;47.696;9.140;2023-12-22T01:05:18;1.20;;;1.10;;
60847;SDS011;46681;47.696;9.140;2023-12-22T01:07:44;1.40;;;0.90;;
60847;SDS011;46681;47.696;9.140;2023-12-22T01:10:09;1.30;;;1.20;;
60847;SDS011;46681;47.696;9.140;2023-12-22T01:12:35;0.90;;;0.90;;
60847;SDS011;46681;47.696;9.140;2023-12-22T01:15:00;1.10;;;0.80;;
60847;SDS011;46681;47.696;9.140;2023-12-22T01:17:26;1.20;;;1.10;;
60847;SDS011;46681;47.696;9.140;2023-12-22T01:19:51;1.10;;;1.10;;
60847;SDS011;46681;47.696;9.140;2023-12-22T01:22:17;0.90;;;0.90;;
60847;SDS011;46681;47.696;9.140;2023-12-22T01:24:42;1.10;;;1.10;;
60847;SDS011;46681;47.696;9.140;2023-12-22T01:27:08;1.23;;;0.77;;
60847;SDS011;46681;47.696;9.140;2023-12-22T01:29:34;1.67;;;1.10;;
60847;SDS011;46681;47.696;9.140;2023-12-22T01:32:00;0.80;;;0.80;;
60847;SDS011;46681;47.696;9.140;2023-12-22T01:34:25;1.00;;;1.00;;
60847;SDS011;46681;47.696;9.140;2023-12-22T01:36:51;0.70;;;0.70;;
60847;SDS011;46681;47.696;9.140;2023-12-22T01:39:16;1.07;;;0.80;;
60847;SDS011;46681;47.696;9.140;2023-12-22T01:41:42;2.17;;;0.70;;
60847;SDS011;46681;47.696;9.140;2023-12-22T01:44:11;1.10;;;0.70;;
60847;SDS011;46681;47.696;9.140;2023-12-22T01:46:36;1.33;;;1.00;;
60847;SDS011;46681;47.696;9.140;2023-12-22T01:49:03;1.23;;;1.10;;
60847;SDS011;46681;47.696;9.140;2023-12-22T01:51:30;1.03;;;1.03;;
60847;SDS011;46681;47.696;9.140;2023-12-22T01:53:57;1.20;;;0.87;;
60847;SDS011;46681;47.696;9.140;2023-12-22T01:56:25;0.63;;;0.63;;
60847;SDS011;46681;47.696;9.140;2023-12-22T01:58:52;0.90;;;0.90;;
60847;SDS011;46681;47.696;9.140;2023-12-22T02:01:24;0.97;;;0.97;;
60847;SDS011;46681;47.696;9.140;2023-12-22T02:03:52;1.07;;;0.80;;
60847;SDS011;46681;47.696;9.140;2023-12-22T02:06:19;0.80;;;0.80;;
60847;SDS011;46681;47.696;9.140;2023-12-22T02:08:48;0.90;;;0.90;;
60847;SDS011;46681;47.696;9.140;2023-12-22T02:11:14;0.90;;;0.70;;
60847;SDS011;46681;47.696;9.140;2023-12-22T02:13:40;1.10;;;0.90;;
60847;SDS011;46681;47.696;9.140;2023-12-22T02:16:11;0.90;;;0.90;;
60847;SDS011;46681;47.696;9.140;2023-12-22T02:18:43;1.10;;;1.00;;
60847;SDS011;46681;47.696;9.140;2023-12-22T02:21:12;1.00;;;1.00;;
60847;SDS011;46681;47.696;9.140;2023-12-22T02:23:37;1.47;;;1.00;;
60847;SDS011;46681;47.696;9.140;2023-12-22T02:26:06;0.87;;;0.87;;
60847;SDS011;46681;47.696;9.140;2023-12-22T02:28:43;0.73;;;0.70;;
60847;SDS011;46681;47.696;9.140;2023-12-22T02:33:43;1.00;;;1.00;;
60847;SDS011;46681;47.696;9.140;2023-12-22T02:36:13;1.03;;;0.97;;
60847;SDS011;46681;47.696;9.140;2023-12-22T02:38:43;1.70;;;1.10;;
60847;SDS011;46681;47.696;9.140;2023-12-22T02:41:10;1.30;;;0.90;;
60847;SDS011;46681;47.696;9.140;2023-12-22T02:43:36;1.40;;;1.07;;
60847;SDS011;46681;47.696;9.140;2023-12-22T02:46:02;0.90;;;0.90;;
60847;SDS011;46681;47.696;9.140;2023-12-22T02:48:28;0.80;;;0.80;;
60847;SDS011;46681;47.696;9.140;2023-12-22T02:50:53;1.23;;;0.93;;
60847;SDS011;46681;47.696;9.140;2023-12-22T02:53:19;1.27;;;0.87;;
60847;SDS011;46681;47.696;9.140;2023-12-22T02:55:44;1.17;;;1.10;;
60847;SDS011;46681;47.696;9.140;2023-12-22T02:58:10;0.80;;;0.80;;
60847;SDS011;46681;47.696;9.140;2023-12-22T03:00:35;2.07;;;1.50;;
60847;SDS011;46681;47.696;9.140;2023-12-22T03:03:01;1.53;;;1.40;;
60847;SDS011;46681;47.696;9.140;2023-12-22T03:05:26;1.40;;;1.10;;
60847;SDS011;46681;47.696;9.140;2023-12-22T03:07:52;1.40;;;1.27;;
60847;SDS011;46681;47.696;9.140;2023-12-22T03:10:21;1.80;;;1.10;;
60847;SDS011;46681;47.696;9.140;2023-12-22T03:12:48;1.80;;;1.37;;
60847;SDS011;46681;47.696;9.140;2023-12-22T03:15:14;2.23;;;1.00;;
60847;SDS011;46681;47.696;9.140;2023-12-22T03:17:39;1.53;;;1.10;;
60847;SDS011;46681;47.696;9.140;2023-12-22T03:20:05;2.00;;;1.20;;
60847;SDS011;46681;47.696;9.140;2023-12-22T03:22:31;0.83;;;0.83;;
60847;SDS011;46681;47.696;9.140;2023-12-22T03:24:56;1.93;;;1.20;;
60847;SDS011;46681;47.696;9.140;2023-12-22T03:27:22;1.33;;;1.20;;
60847;SDS011;46681;47.696;9.140;2023-12-22T03:29:47;1.13;;;1.03;;
60847;SDS011;46681;47.696;9.140;2023-12-22T03:32:13;1.20;;;1.10;;
60847;SDS011;46681;47.696;9.140;2023-12-22T03:34:38;1.73;;;1.10;;
60847;SDS011;46681;47.696;9.140;2023-12-22T03:37:04;1.70;;;1.03;;
60847;SDS011;46681;47.696;9.140;2023-12-22T03:39:29;1.57;;;0.97;;
60847;SDS011;46681;47.696;9.140;2023-12-22T03:41:55;1.30;;;1.20;;
60847;SDS011;46681;47.696;9.140;2023-12-22T03:44:20;1.10;;;1.00;;
60847;SDS011;46681;47.696;9.140;2023-12-22T03:46:48;2.07;;;1.33;;
60847;SDS011;46681;47.696;9.140;2023-12-22T03:49:14;2.00;;;1.10;;
60847;SDS011;46681;47.696;9.140;2023-12-22T03:51:39;2.17;;;1.43;;
60847;SDS011;46681;47.696;9.140;2023-12-22T03:54:05;1.10;;;1.10;;
60847;SDS011;46681;47.696;9.140;2023-12-22T03:56:30;1.30;;;1.20;;
60847;SDS011;46681;47.696;9.140;2023-12-22T03:58:56;1.50;;;1.20;;
60847;SDS011;46681;47.696;9.140;2023-12-22T04:01:21;2.33;;;1.60;;
60847;SDS011;46681;47.696;9.140;2023-12-22T04:03:47;4.00;;;1.30;;
60847;SDS011;46681;47.696;9.140;2023-12-22T04:06:12;1.53;;;1.10;;
60847;SDS011;46681;47.696;9.140;2023-12-22T04:08:38;1.27;;;1.17;;
60847;SDS011;46681;47.696;9.140;2023-12-22T04:11:03;1.03;;;0.97;;
60847;SDS011;46681;47.696;9.140;2023-12-22T04:13:29;1.47;;;1.10;;
60847;SDS011;46681;47.696;9.140;2023-12-22T04:15:54;1.90;;;1.00;;
60847;SDS011;46681;47.696;9.140;2023-12-22T04:18:20;2.13;;;1.20;;
60847;SDS011;46681;47.696;9.140;2023-12-22T04:20:45;1.20;;;1.10;;
60847;SDS011;46681;47.696;9.140;2023-12-22T04:23:11;2.53;;;1.27;;
60847;SDS011;46681;47.696;9.140;2023-12-22T04:25:36;1.20;;;1.07;;
60847;SDS011;46681;47.696;9.140;2023-12-22T04:28:02;1.00;;;1.00;;
60847;SDS011;46681;47.696;9.140;2023-12-22T04:30:27;1.10;;;1.00;;
60847;SDS011;46681;47.696;9.140;2023-12-22T04:32:53;2.43;;;1.40;;
60847;SDS011;46681;47.696;9.140;2023-12-22T04:35:19;1.20;;;1.07;;
60847;SDS011;46681;47.696;9.140;2023-12-22T04:37:44;2.50;;;1.07;;
60847;SDS011;46681;47.696;9.140;2023-12-22T04:40:10;2.00;;;1.10;;
60847;SDS011;46681;47.696;9.140;2023-12-22T04:42:36;2.33;;;1.00;;
60847;SDS011;46681;47.696;9.140;2023-12-22T04:45:02;1.00;;;1.00;;
60847;SDS011;46681;47.696;9.140;2023-12-22T04:47:27;1.40;;;1.30;;
60847;SDS011;46681;47.696;9.140;2023-12-22T04:49:53;1.50;;;1.40;;
60847;SDS011;46681;47.696;9.140;2023-12-22T04:52:18;2.43;;;1.10;;
60847;SDS011;46681;47.696;9.140;2023-12-22T04:54:44;1.53;;;1.30;;
60847;SDS011;46681;47.696;9.140;2023-12-22T04:57:12;2.47;;;1.60;;
60847;SDS011;46681;47.696;9.140;2023-12-22T04:59:38;1.10;;;1.07;;
60847;SDS011;46681;47.696;9.140;2023-12-22T05:02:06;1.40;;;1.30;;
60847;SDS011;46681;47.696;9.140;2023-12-22T05:04:34;1.23;;;0.93;;
60847;SDS011;46681;47.696;9.140;2023-12-22T05:06:59;0.80;;;0.80;;
60847;SDS011;46681;47.696;9.140;2023-12-22T05:09:25;1.10;;;1.03;;
60847;SDS011;46681;47.696;9.140;2023-12-22T05:11:52;1.57;;;1.07;;
60847;SDS011;46681;47.696;9.140;2023-12-22T05:14:18;1.27;;;1.20;;
60847;SDS011;46681;47.696;9.140;2023-12-22T05:16:45;0.97;;;0.97;;
60847;SDS011;46681;47.696;9.140;2023-12-22T05:19:10;0.93;;;0.90;;
60847;SDS011;46681;47.696;9.140;2023-12-22T05:21:36;1.87;;;1.00;;
60847;SDS011;46681;47.696;9.140;2023-12-22T05:24:01;2.40;;;1.50;;
60847;SDS011;46681;47.696;9.140;2023-12-22T05:26:27;1.37;;;1.00;;
60847;SDS011;46681;47.696;9.140;2023-12-22T05:28:52;1.00;;;0.90;;
60847;SDS011;46681;47.696;9.140;2023-12-22T05:31:20;4.30;;;1.43;;
60847;SDS011;46681;47.696;9.140;2023-12-22T05:33:46;1.23;;;0.90;;
60847;SDS011;46681;47.696;9.140;2023-12-22T05:36:17;1.67;;;1.00;;
60847;SDS011;46681;47.696;9.140;2023-12-22T05:38:42;1.07;;;1.00;;
60847;SDS011;46681;47.696;9.140;2023-12-22T05:41:08;1.20;;;1.10;;
60847;SDS011;46681;47.696;9.140;2023-12-22T05:43:36;2.23;;;1.60;;
60847;SDS011;46681;47.696;9.140;2023-12-22T05:46:01;2.40;;;1.00;;
60847;SDS011;46681;47.696;9.140;2023-12-22T05:48:30;1.77;;;1.03;;
60847;SDS011;46681;47.696;9.140;2023-12-22T05:51:01;1.57;;;1.17;;
60847;SDS011;46681;47.696;9.140;2023-12-22T05:53:27;1.40;;;1.10;;
60847;SDS011;46681;47.696;9.140;2023-12-22T05:55:53;1.30;;;1.20;;
60847;SDS011;46681;47.696;9.140;2023-12-22T05:58:21;1.33;;;1.20;;
60847;SDS011;46681;47.696;9.140;2023-12-22T06:00:52;1.73;;;0.93;;
60847;SDS011;46681;47.696;9.140;2023-12-22T06:03:18;3.00;;;1.57;;
60847;SDS011;46681;47.696;9.140;2023-12-22T06:05:44;1.70;;;1.00;;
60847;SDS011;46681;47.696;9.140;2023-12-22T06:08:09;1.43;;;1.33;;
60847;SDS011;46681;47.696;9.140;2023-12-22T06:10:40;0.97;;;0.87;;
60847;SDS011;46681;47.696;9.140;2023-12-22T06:13:07;1.53;;;1.40;;
60847;SDS011;46681;47.696;9.140;2023-12-22T06:15:32;1.23;;;1.00;;
60847;SDS011;46681;47.696;9.140;2023-12-22T06:17:58;1.53;;;1.27;;
60847;SDS011;46681;47.696;9.140;2023-12-22T06:20:24;1.73;;;1.20;;
60847;SDS011;46681;47.696;9.140;2023-12-22T06:22:49;2.50;;;1.50;;
60847;SDS011;46681;47.696;9.140;2023-12-22T06:25:16;2.80;;;1.23;;
60847;SDS011;46681;47.696;9.140;2023-12-22T06:27:41;1.50;;;1.30;;
60847;SDS011;46681;47.696;9.140;2023-12-22T06:30:10;1.63;;;1.40;;
60847;SDS011;46681;47.696;9.140;2023-12-22T06:32:36;2.20;;;1.13;;
60847;SDS011;46681;47.696;9.140;2023-12-22T06:35:03;1.47;;;1.23;;
60847;SDS011;46681;47.696;9.140;2023-12-22T06:37:29;1.97;;;1.17;;
60847;SDS011;46681;47.696;9.140;2023-12-22T06:39:58;3.07;;;1.43;;
60847;SDS011;46681;47.696;9.140;2023-12-22T06:42:27;2.93;;;1.57;;
60847;SDS011;46681;47.696;9.140;2023-12-22T06:44:56;3.07;;;1.30;;
60847;SDS011;46681;47.696;9.140;2023-12-22T06:47:21;6.80;;;1.60;;
60847;SDS011;46681;47.696;9.140;2023-12-22T06:49:49;4.07;;;1.60;;
60847;SDS011;46681;47.696;9.140;2023-12-22T06:52:20;3.57;;;1.70;;
60847;SDS011;46681;47.696;9.140;2023-12-22T06:54:47;4.50;;;2.27;;
60847;SDS011;46681;47.696;9.140;2023-12-22T06:57:15;4.67;;;1.50;;
60847;SDS011;46681;47.696;9.140;2023-12-22T06:59:40;4.27;;;2.00;;
60847;SDS011;46681;47.696;9.140;2023-12-22T07:02:06;4.40;;;2.20;;
60847;SDS011;46681;47.696;9.140;2023-12-22T07:07:27;4.00;;;1.73;;
60847;SDS011;46681;47.696;9.140;2023-12-22T07:09:52;5.67;;;1.83;;
60847;SDS011;46681;47.696;9.140;2023-12-22T07:12:26;6.83;;;2.07;;
60847;SDS011;46681;47.696;9.140;2023-12-22T07:15:00;4.63;;;1.80;;
60847;SDS011;46681;47.696;9.140;2023-12-22T07:17:28;5.63;;;2.10;;
60847;SDS011;46681;47.696;9.140;2023-12-22T07:20:06;4.17;;;2.00;;
60847;SDS011;46681;47.696;9.140;2023-12-22T07:22:32;3.40;;;1.80;;
60847;SDS011;46681;47.696;9.140;2023-12-22T07:24:57;4.97;;;1.50;;
60847;SDS011;46681;47.696;9.140;2023-12-22T07:27:27;5.47;;;1.70;;
60847;SDS011;46681;47.696;9.140;2023-12-22T07:30:00;4.73;;;2.20;;
60847;SDS011;46681;47.696;9.140;2023-12-22T07:32:31;4.77;;;1.77;;
60847;SDS011;46681;47.696;9.140;2023-12-22T07:35:01;2.97;;;1.30;;
60847;SDS011;46681;47.696;9.140;2023-12-22T07:37:36;4.50;;;2.03;;
60847;SDS011;46681;47.696;9.140;2023-12-22T07:40:07;3.20;;;1.60;;
60847;SDS011;46681;47.696;9.140;2023-12-22T07:42:36;3.23;;;1.77;;
60847;SDS011;46681;47.696;9.140;2023-12-22T07:45:04;4.07;;;1.60;;
60847;SDS011;46681;47.696;9.140;2023-12-22T07:47:34;4.57;;;1.90;;
60847;SDS011;46681;47.696;9.140;2023-12-22T07:50:03;3.93;;;1.60;;
60847;SDS011;46681;47.696;9.140;2023-12-22T07:52:33;3.57;;;1.50;;
60847;SDS011;46681;47.696;9.140;2023-12-22T07:55:00;2.50;;;1.57;;
60847;SDS011;46681;47.696;9.140;2023-12-22T07:57:28;5.20;;;1.83;;
60847;SDS011;46681;47.696;9.140;2023-12-22T07:59:53;5.93;;;2.20;;
60847;SDS011;46681;47.696;9.140;2023-12-22T08:02:21;4.13;;;1.80;;
60847;SDS011;46681;47.696;9.140;2023-12-22T08:04:46;3.47;;;2.10;;
60847;SDS011;46681;47.696;9.140;2023-12-22T08:07:12;4.07;;;1.80;;
60847;SDS011;46681;47.696;9.140;2023-12-22T08:09:39;3.87;;;1.50;;
60847;SDS011;46681;47.696;9.140;2023-12-22T08:12:04;3.73;;;1.80;;
60847;SDS011;46681;47.696;9.140;2023-12-22T08:14:34;4.23;;;1.90;;
60847;SDS011;46681;47.696;9.140;2023-12-22T08:17:03;2.87;;;1.73;;
60847;SDS011;46681;47.696;9.140;2023-12-22T08:19:30;2.87;;;1.93;;
60847;SDS011;46681;47.696;9.140;2023-12-22T08:21:58;2.20;;;1.50;;
60847;SDS011;46681;47.696;9.140;2023-12-22T08:24:23;4.67;;;2.00;;
60847;SDS011;46681;47.696;9.140;2023-12-22T08:26:50;4.33;;;1.73;;
60847;SDS011;46681;47.696;9.140;2023-12-22T08:29:20;6.57;;;2.30;;
60847;SDS011;46681;47.696;9.140;2023-12-22T08:31:46;4.67;;;1.80;;
60847;SDS011;46681;47.696;9.140;2023-12-22T08:34:13;4.17;;;2.30;;
60847;SDS011;46681;47.696;9.140;2023-12-22T08:36:39;3.27;;;1.67;;
60847;SDS011;46681;47.696;9.140;2023-12-22T08:39:05;4.30;;;2.27;;
60847;SDS011;46681;47.696;9.140;2023-12-22T08:41:34;4.40;;;1.80;;
60847;SDS011;46681;47.696;9.140;2023-12-22T08:44:04;3.17;;;1.57;;
60847;SDS011;46681;47.696;9.140;2023-12-22T08:46:42;4.30;;;1.90;;
60847;SDS011;46681;47.696;9.140;2023-12-22T08:49:09;3.03;;;1.77;;
60847;SDS011;46681;47.696;9.140;2023-12-22T08:51:38;5.37;;;1.93;;
60847;SDS011;46681;47.696;9.140;2023-12-22T08:54:04;4.40;;;1.90;;
60847;SDS011;46681;47.696;9.140;2023-12-22T08:56:30;4.63;;;2.30;;
60847;SDS011;46681;47.696;9.140;2023-12-22T08:58:57;5.17;;;1.80;;
60847;SDS011;46681;47.696;9.140;2023-12-22T09:01:25;4.57;;;2.37;;
60847;SDS011;46681;47.696;9.140;2023-12-22T09:03:55;3.53;;;1.80;;
60847;SDS011;46681;47.696;9.140;2023-12-22T09:06:23;2.87;;;1.47;;
60847;SDS011;46681;47.696;9.140;2023-12-22T09:08:54;3.20;;;1.80;;
60847;SDS011;46681;47.696;9.140;2023-12-22T09:11:30;5.43;;;2.37;;
60847;SDS011;46681;47.696;9.140;2023-12-22T09:13:56;5.37;;;1.73;;
60847;SDS011;46681;47.696;9.140;2023-12-22T09:16:25;2.93;;;1.70;;
60847;SDS011;46681;47.696;9.140;2023-12-22T09:18:51;4.53;;;1.50;;
60847;SDS011;46681;47.696;9.140;2023-12-22T09:21:37;5.10;;;2.40;;
60847;SDS011;46681;47.696;9.140;2023-12-22T09:24:06;5.67;;;1.80;;
60847;SDS011;46681;47.696;9.140;2023-12-22T09:26:32;6.17;;;2.07;;
60847;SDS011;46681;47.696;9.140;2023-12-22T09:28:58;5.43;;;2.00;;
60847;SDS011;46681;47.696;9.140;2023-12-22T09:31:26;3.37;;;1.50;;
60847;SDS011;46681;47.696;9.140;2023-12-22T09:33:52;3.37;;;1.60;;
60847;SDS011;46681;47.696;9.140;2023-12-22T09:36:18;4.57;;;2.23;;
60847;SDS011;46681;47.696;9.140;2023-12-22T09:38:53;4.17;;;1.67;;
60847;SDS011;46681;47.696;9.140;2023-12-22T09:41:19;5.53;;;1.93;;
60847;SDS011;46681;47.696;9.140;2023-12-22T09:43:46;4.57;;;1.80;;
60847;SDS011;46681;47.696;9.140;2023-12-22T09:46:24;2.60;;;1.70;;
60847;SDS011;46681;47.696;9.140;2023-12-22T09:48:52;6.03;;;2.20;;
60847;SDS011;46681;47.696;9.140;2023-12-22T09:51:20;5.93;;;2.07;;
60847;SDS011;46681;47.696;9.140;2023-12-22T09:53:46;4.00;;;2.20;;
60847;SDS011;46681;47.696;9.140;2023-12-22T09:56:17;4.53;;;1.97;;
60847;SDS011;46681;47.696;9.140;2023-12-22T09:58:43;6.47;;;2.60;;
60847;SDS011;46681;47.696;9.140;2023-12-22T10:01:24;7.30;;;2.20;;
60847;SDS011;46681;47.696;9.140;2023-12-22T10:03:56;3.57;;;2.17;;
60847;SDS011;46681;47.696;9.140;2023-12-22T10:06:24;4.20;;;2.30;;
60847;SDS011;46681;47.696;9.140;2023-12-22T10:08:59;7.80;;;2.90;;
60847;SDS011;46681;47.696;9.140;2023-12-22T10:11:31;7.10;;;2.67;;
60847;SDS011;46681;47.696;9.140;2023-12-22T10:13:58;7.27;;;2.17;;
60847;SDS011;46681;47.696;9.140;2023-12-22T10:16:34;6.37;;;2.20;;
60847;SDS011;46681;47.696;9.140;2023-12-22T10:19:06;4.87;;;2.47;;
60847;SDS011;46681;47.696;9.140;2023-12-22T10:21:35;4.67;;;2.37;;
60847;SDS011;46681;47.696;9.140;2023-12-22T10:24:01;7.03;;;2.00;;
60847;SDS011;46681;47.696;9.140;2023-12-22T10:26:30;3.77;;;2.07;;
60847;SDS011;46681;47.696;9.140;2023-12-22T10:28:55;4.27;;;2.07;;
60847;SDS011;46681;47.696;9.140;2023-12-22T10:31:21;4.13;;;2.17;;
60847;SDS011;46681;47.696;9.140;2023-12-22T10:33:47;5.00;;;1.90;;
60847;SDS011;46681;47.696;9.140;2023-12-22T10:36:24;3.60;;;2.17;;
60847;SDS011;46681;47.696;9.140;2023-12-22T10:38:53;6.50;;;2.53;;
60847;SDS011;46681;47.696;9.140;2023-12-22T10:41:24;3.03;;;1.80;;
60847;SDS011;46681;47.696;9.140;2023-12-22T10:43:50;4.47;;;1.80;;
60847;SDS011;46681;47.696;9.140;2023-12-22T10:46:17;5.93;;;2.20;;
60847;SDS011;46681;47.696;9.140;2023-12-22T10:48:43;5.57;;;2.20;;
60847;SDS011;46681;47.696;9.140;2023-12-22T10:51:25;4.67;;;2.03;;
60847;SDS011;46681;47.696;9.140;2023-12-22T10:53:53;5.03;;;2.00;;
60847;SDS011;46681;47.696;9.140;2023-12-22T10:56:28;4.47;;;2.07;;
60847;SDS011;46681;47.696;9.140;2023-12-22T10:58:57;6.73;;;2.07;;
60847;SDS011;46681;47.696;9.140;2023-12-22T11:01:28;5.00;;;1.70;;
60847;SDS011;46681;47.696;9.140;2023-12-22T11:03:54;4.77;;;2.03;;
60847;SDS011;46681;47.696;9.140;2023-12-22T11:06:30;3.97;;;1.97;;
60847;SDS011;46681;47.696;9.140;2023-12-22T11:09:07;3.83;;;1.93;;
60847;SDS011;46681;47.696;9.140;2023-12-22T11:11:36;4.73;;;1.70;;
60847;SDS011;46681;47.696;9.140;2023-12-22T11:14:07;4.07;;;1.67;;
60847;SDS011;46681;47.696;9.140;2023-12-22T11:16:35;2.87;;;1.73;;
60847;SDS011;46681;47.696;9.140;2023-12-22T11:19:11;3.63;;;2.20;;
60847;SDS011;46681;47.696;9.140;2023-12-22T11:21:42;3.67;;;1.90;;
60847;SDS011;46681;47.696;9.140;2023-12-22T11:24:13;2.70;;;1.73;;
60847;SDS011;46681;47.696;9.140;2023-12-22T11:26:53;2.50;;;1.60;;
60847;SDS011;46681;47.696;9.140;2023-12-22T11:29:38;3.17;;;1.70;;
60847;SDS011;46681;47.696;9.140;2023-12-22T11:32:06;2.83;;;1.77;;
60847;SDS011;46681;47.696;9.140;2023-12-22T11:34:34;2.27;;;1.57;;
60847;SDS011;46681;47.696;9.140;2023-12-22T11:37:05;3.50;;;1.73;;
60847;SDS011;46681;47.696;9.140;2023-12-22T11:39:37;2.87;;;1.50;;
60847;SDS011;46681;47.696;9.140;2023-12-22T11:42:03;2.30;;;1.57;;
60847;SDS011;46681;47.696;9.140;2023-12-22T11:44:48;2.23;;;1.57;;
60847;SDS011;46681;47.696;9.140;2023-12-22T11:47:16;4.17;;;1.57;;
60847;SDS011;46681;47.696;9.140;2023-12-22T11:49:48;3.33;;;1.40;;
60847;SDS011;46681;47.696;9.140;2023-12-22T11:52:17;3.20;;;1.47;;
60847;SDS011;46681;47.696;9.140;2023-12-22T11:54:52;2.30;;;1.60;;
60847;SDS011;46681;47.696;9.140;2023-12-22T11:59:53;1.93;;;1.37;;
60847;SDS011;46681;47.696;9.140;2023-12-22T12:02:54;3.90;;;1.50;;
60847;SDS011;46681;47.696;9.140;2023-12-22T12:05:38;2.33;;;1.60;;
60847;SDS011;46681;47.696;9.140;2023-12-22T12:08:07;3.10;;;1.40;;
60847;SDS011;46681;47.696;9.140;2023-12-22T12:13:15;2.77;;;1.67;;
60847;SDS011;46681;47.696;9.140;2023-12-22T12:15:41;2.70;;;1.53;;
60847;SDS011;46681;47.696;9.140;2023-12-22T12:18:07;2.77;;;1.10;;
60847;SDS011;46681;47.696;9.140;2023-12-22T12:20:34;2.33;;;1.20;;
60847;SDS011;46681;47.696;9.140;2023-12-22T12:23:11;3.60;;;1.30;;
60847;SDS011;46681;47.696;9.140;2023-12-22T12:25:41;4.30;;;1.83;;
60847;SDS011;46681;47.696;9.140;2023-12-22T12:28:07;4.33;;;1.70;;
60847;SDS011;46681;47.696;9.140;2023-12-22T12:30:38;3.90;;;1.20;;
60847;SDS011;46681;47.696;9.140;2023-12-22T12:33:07;2.07;;;1.13;;
60847;SDS011;46681;47.696;9.140;2023-12-22T12:35:34;2.77;;;1.40;;
60847;SDS011;46681;47.696;9.140;2023-12-22T12:38:07;1.90;;;1.13;;
60847;SDS011;46681;47.696;9.140;2023-12-22T12:40:33;2.00;;;1.00;;
60847;SDS011;46681;47.696;9.140;2023-12-22T12:43:09;1.67;;;1.10;;
60847;SDS011;46681;47.696;9.140;2023-12-22T12:45:43;2.50;;;1.03;;
60847;SDS011;46681;47.696;9.140;2023-12-22T12:48:11;1.53;;;1.13;;
60847;SDS011;46681;47.696;9.140;2023-12-22T12:50:45;1.73;;;1.23;;
60847;SDS011;46681;47.696;9.140;2023-12-22T12:53:10;3.47;;;1.47;;
60847;SDS011;46681;47.696;9.140;2023-12-22T12:55:38;1.73;;;0.90;;
60847;SDS011;46681;47.696;9.140;2023-12-22T12:58:06;0.63;;;0.63;;
60847;SDS011;46681;47.696;9.140;2023-12-22T13:00:32;2.47;;;1.20;;
60847;SDS011;46681;47.696;9.140;2023-12-22T13:03:07;2.57;;;1.03;;
60847;SDS011;46681;47.696;9.140;2023-12-22T13:05:37;1.23;;;1.10;;
60847;SDS011;46681;47.696;9.140;2023-12-22T13:10:42;1.40;;;1.30;;
60847;SDS011;46681;47.696;9.140;2023-12-22T13:13:08;0.70;;;0.70;;
60847;SDS011;46681;47.696;9.140;2023-12-22T13:15:33;4.83;;;1.20;;
60847;SDS011;46681;47.696;9.140;2023-12-22T13:17:59;1.83;;;1.17;;
60847;SDS011;46681;47.696;9.140;2023-12-22T13:20:30;7.97;;;1.23;;
60847;SDS011;46681;47.696;9.140;2023-12-22T13:22:55;1.93;;;1.20;;
60847;SDS011;46681;47.696;9.140;2023-12-22T13:25:21;1.80;;;0.90;;
60847;SDS011;46681;47.696;9.140;2023-12-22T13:27:48;1.73;;;1.10;;
60847;SDS011;46681;47.696;9.140;2023-12-22T13:30:38;0.80;;;0.80;;
60847;SDS011;46681;47.696;9.140;2023-12-22T13:33:07;1.37;;;1.10;;
60847;SDS011;46681;47.696;9.140;2023-12-22T13:35:35;1.83;;;0.90;;
60847;SDS011;46681;47.696;9.140;2023-12-22T13:38:07;1.33;;;0.80;;
60847;SDS011;46681;47.696;9.140;2023-12-22T13:40:49;1.83;;;0.90;;
60847;SDS011;46681;47.696;9.140;2023-12-22T13:43:16;16.30;;;1.63;;
60847;SDS011;46681;47.696;9.140;2023-12-22T13:45:49;6.50;;;1.17;;
60847;SDS011;46681;47.696;9.140;2023-12-22T13:48:20;2.77;;;1.07;;
60847;SDS011;46681;47.696;9.140;2023-12-22T13:51:02;3.77;;;1.20;;
60847;SDS011;46681;47.696;9.140;2023-12-22T13:53:35;2.77;;;1.20;;
60847;SDS011;46681;47.696;9.140;2023-12-22T13:56:19;1.60;;;1.10;;
60847;SDS011;46681;47.696;9.140;2023-12-22T13:58:48;2.10;;;1.00;;
60847;SDS011;46681;47.696;9.140;2023-12-22T14:01:15;1.40;;;1.30;;
60847;SDS011;46681;47.696;9.140;2023-12-22T14:03:42;1.30;;;0.93;;
60847;SDS011;46681;47.696;9.140;2023-12-22T14:06:08;0.90;;;0.90;;
60847;SDS011;46681;47.696;9.140;2023-12-22T14:08:35;0.80;;;0.80;;
60847;SDS011;46681;47.696;9.140;2023-12-22T14:11:09;2.30;;;1.00;;
60847;SDS011;46681;47.696;9.140;2023-12-22T14:13:38;1.33;;;0.80;;
60847;SDS011;46681;47.696;9.140;2023-12-22T14:16:15;0.70;;;0.70;;
60847;SDS011;46681;47.696;9.140;2023-12-22T14:18:42;1.10;;;1.10;;
60847;SDS011;46681;47.696;9.140;2023-12-22T14:21:08;0.93;;;0.77;;
60847;SDS011;46681;47.696;9.140;2023-12-22T14:23:34;3.30;;;0.90;;
60847;SDS011;46681;47.696;9.140;2023-12-22T14:26:00;2.57;;;0.90;;
60847;SDS011;46681;47.696;9.140;2023-12-22T14:28:29;0.87;;;0.87;;
60847;SDS011;46681;47.696;9.140;2023-12-22T14:30:59;1.23;;;0.70;;
60847;SDS011;46681;47.696;9.140;2023-12-22T14:33:28;0.70;;;0.70;;
60847;SDS011;46681;47.696;9.140;2023-12-22T14:35:59;2.50;;;0.90;;
60847;SDS011;46681;47.696;9.140;2023-12-22T14:38:24;2.57;;;1.20;;
60847;SDS011;46681;47.696;9.140;2023-12-22T14:40:50;4.80;;;1.10;;
60847;SDS011;46681;47.696;9.140;2023-12-22T14:43:15;5.63;;;1.17;;
60847;SDS011;46681;47.696;9.140;2023-12-22T14:45:46;9.47;;;1.10;;
60847;SDS011;46681;47.696;9.140;2023-12-22T14:48:12;3.27;;;0.90;;
60847;SDS011;46681;47.696;9.140;2023-12-22T14:50:38;3.47;;;1.10;;
60847;SDS011;46681;47.696;9.140;2023-12-22T14:53:03;6.43;;;1.00;;
60847;SDS011;46681;47.696;9.140;2023-12-22T14:55:38;4.23;;;1.10;;
60847;SDS011;46681;47.696;9.140;2023-12-22T14:58:06;1.80;;;0.83;;
60847;SDS011;46681;47.696;9.140;2023-12-22T15:00:37;1.00;;;1.00;;
60847;SDS011;46681;47.696;9.140;2023-12-22T15:03:03;0.80;;;0.77;;
60847;SDS011;46681;47.696;9.140;2023-12-22T15:05:37;0.63;;;0.63;;
60847;SDS011;46681;47.696;9.140;2023-12-22T15:08:04;0.60;;;0.60;;